Cosco Tengfei — HPMO — position and weather

sailwx.info

Track history (hours):
 
Tides and Currents Weather Stations Pressure Air Temp Water Temp Dewpoint Dewpoint Depression Visibility Wind Speed Wind Dir Waves Ship Positions

Cosco Tengfei

Last reported at 2015-Mar-30 16:33 UTC. Time now 2015-Mar-31 16:50 UTC.
Position N 38°22' E 015°35'.

Length 183 m; draft 9.2 m.

Type: Cargo ship. MMSI: 355518000.

Date/timePositionNaut miles runAvg speedWind from/ knotsBaromVisibWave heightAir tempDewpointWater temp
2015-Mar-30 16:33N 38°22' E 015°35'29816.5
2015-Mar-29 22:30N 41°43' E 010°47'5315.8
2015-Mar-29 19:10N 42°21' E 009°57'1716.0
2015-Mar-29 18:08N 42°36' E 009°49'1415.6
2015-Mar-29 17:14N 42°49' E 009°42'1115.9
2015-Mar-29 16:33N 42°59' E 009°37'1515.5
2015-Mar-29 15:33N 43°13' E 009°28'1615.7
2015-Mar-29 14:33N 43°27' E 009°16'1615.8
2015-Mar-29 13:33N 43°40' E 009°05'1615.7
2015-Mar-29 12:33N 43°53' E 008°53'1515.1
2015-Mar-29 11:33N 44°06' E 008°42'1514.9
2015-Mar-29 10:33N 44°19' E 008°31'1 0.7
2015-Mar-29 09:28N 44°19' E 008°30'0 0.0
2015-Mar-29 08:28N 44°19' E 008°30'0 0.0
2015-Mar-29 07:31N 44°19' E 008°30'0 0.0
2015-Mar-29 06:28N 44°19' E 008°30'0 0.0
2015-Mar-29 05:31N 44°19' E 008°30'0 0.0
2015-Mar-29 04:31N 44°19' E 008°30'0 0.0
2015-Mar-29 03:29N 44°19' E 008°30'0 0.0
2015-Mar-29 02:28N 44°19' E 008°30'0 0.0
2015-Mar-29 01:31N 44°19' E 008°30'0 0.0
2015-Mar-29 00:28N 44°19' E 008°30'0 0.0
2015-Mar-28 23:31N 44°19' E 008°30'0 0.0
2015-Mar-28 22:28N 44°19' E 008°30'0 0.0
2015-Mar-28 21:28N 44°19' E 008°30'0 0.0
2015-Mar-28 20:25N 44°19' E 008°30'0 0.0
2015-Mar-28 19:31N 44°19' E 008°30'0 0.0
2015-Mar-28 18:28N 44°19' E 008°30'0 0.0
2015-Mar-28 17:28N 44°19' E 008°30'0 0.0
2015-Mar-28 16:31N 44°19' E 008°30'0 0.0
2015-Mar-28 15:31N 44°19' E 008°30'0 0.0
2015-Mar-28 14:31N 44°19' E 008°30'0 0.0
2015-Mar-28 13:31N 44°19' E 008°30'0 0.0
2015-Mar-28 12:31N 44°19' E 008°30'0 0.0
2015-Mar-28 11:28N 44°19' E 008°30'0 0.0
2015-Mar-28 10:28N 44°19' E 008°30'0 0.0
2015-Mar-28 09:28N 44°19' E 008°30'0 0.0
2015-Mar-28 08:28N 44°19' E 008°30'0 0.0
2015-Mar-28 07:31N 44°19' E 008°30'0 0.4
2015-Mar-28 06:33N 44°19' E 008°30'4 3.8
2015-Mar-28 05:33N 44°16' E 008°33'9 8.7
2015-Mar-28 04:33N 44°09' E 008°40'1414.4
2015-Mar-28 03:34N 43°57' E 008°50'1515.1
2015-Mar-28 02:34N 43°44' E 009°01'1514.7
2015-Mar-28 01:34N 43°31' E 009°12'1514.7
2015-Mar-28 00:34N 43°19' E 009°23'1514.7
2015-Mar-27 23:34N 43°06' E 009°33'25715.1
2015-Mar-27 06:33N 38°49' E 009°23'1616.1
2015-Mar-27 05:33N 38°42' E 009°05'1615.7
2015-Mar-27 04:33N 38°41' E 008°45'1815.7
2015-Mar-27 03:24N 38°43' E 008°22'2216.2
2015-Mar-27 02:03N 38°50' E 007°55'19416.6
2015-Mar-26 14:22N 38°56' E 003°47'1417.1
2015-Mar-26 13:33N 38°58' E 003°29'1514.6
2015-Mar-26 12:33N 38°59' E 003°10'1414.1
2015-Mar-26 11:33N 38°60' E 002°52'1413.8
2015-Mar-26 10:33N 39°06' E 002°37'1414.1
2015-Mar-26 09:33N 39°16' E 002°23'1414.0
2015-Mar-26 08:33N 39°25' E 002°09'1212.0
2015-Mar-26 07:33N 39°36' E 002°04'1313.3
2015-Mar-26 06:33N 39°48' E 002°11'1312.6
2015-Mar-26 05:33N 39°60' E 002°18'1313.0
2015-Mar-26 04:33N 40°12' E 002°23'1313.0
2015-Mar-26 03:33N 40°24' E 002°28'1312.5
2015-Mar-26 02:33N 40°32' E 002°41'8 8.4
2015-Mar-26 01:33N 40°36' E 002°51'1212.0
2015-Mar-26 00:33N 40°42' E 003°05'1212.2
2015-Mar-25 23:33N 40°47' E 003°19'1313.3
2015-Mar-25 22:33N 40°58' E 003°30'1614.7
2015-Mar-25 21:28N 41°12' E 003°39'1713.5
2015-Mar-25 20:13N 41°26' E 003°26'13 7.5
2015-Mar-25 18:29N 41°34' E 003°13'2114.8
2015-Mar-25 17:05N 41°27' E 002°47'1416.2
2015-Mar-25 16:15N 41°22' E 002°30'14 0.6
2015-Mar-24 17:25N 41°20' E 002°12'0 0.0
2015-Mar-23 15:32N 41°20' E 002°12'10 9.9
2015-Mar-23 14:33N 41°10' E 002°08'1515.2
2015-Mar-23 13:33N 40°57' E 001°59'1514.9
2015-Mar-23 12:33N 40°43' E 001°50'1515.2
2015-Mar-23 11:34N 40°30' E 001°41'1515.1
2015-Mar-23 10:33N 40°17' E 001°32'1515.4
2015-Mar-23 09:33N 40°03' E 001°22'1615.2
2015-Mar-23 08:28N 39°48' E 001°13'11414.1
2015-Mar-23 00:24N 38°07' E 000°06'7 7.4
2015-Mar-22 23:31N 38°01' E 000°02'1 0.9
2015-Mar-22 22:32N 38°02' E 000°02'2 1.5
2015-Mar-22 21:18N 38°01' E 000°00'0 0.2
2015-Mar-22 20:06N 38°01' E 000°00'7 1.6
2015-Mar-22 16:04N 37°57' W 000°07'916.4
2015-Mar-22 15:29N 37°51' W 000°16'1516.3
2015-Mar-22 14:33N 37°38' W 000°26'1616.1
2015-Mar-22 13:33N 37°27' W 000°41'1616.1
2015-Mar-22 12:33N 37°16' W 000°56'21516.0
2015-Mar-21 23:04N 36°00' W 005°07'918.3
2015-Mar-21 22:34N 35°59' W 005°18'20113.2
2015-Mar-21 07:20N 37°13' W 009°11'1316.4
2015-Mar-21 06:33N 37°25' W 009°06'1615.6
2015-Mar-21 05:33N 37°40' W 008°60'1616.2
2015-Mar-21 04:33N 37°56' W 009°03'1615.9
2015-Mar-21 03:33N 38°12' W 009°03'1615.4
2015-Mar-21 02:33N 38°27' W 008°58'6 1.9
2015-Mar-20 23:16N 38°31' W 008°52'0 0.0
2015-Mar-20 22:28N 38°31' W 008°52'0 0.0
2015-Mar-20 21:13N 38°31' W 008°52'0 0.0
2015-Mar-20 18:16N 38°31' W 008°52'0 0.0
2015-Mar-20 17:07N 38°31' W 008°52'  
Track history (hours):
 
Tides and Currents Weather Stations Pressure Air Temp Water Temp Dewpoint Dewpoint Depression Visibility Wind Speed Wind Dir Waves Ship Positions

Cosco Tengfei

Last reported at 2015-Mar-30 16:33 UTC. Time now 2015-Mar-31 16:50 UTC.
Position N 38°22' E 015°35'.

Length 183 m; draft 9.2 m.

Type: Cargo ship. MMSI: 355518000.

Date/timePositionNaut miles runAvg speedWind from/ knotsBaromVisibWave heightAir tempDewpointWater temp
2015-Mar-30 16:33N 38°22' E 015°35'29816.5
2015-Mar-29 22:30N 41°43' E 010°47'5315.8
2015-Mar-29 19:10N 42°21' E 009°57'1716.0
2015-Mar-29 18:08N 42°36' E 009°49'1415.6
2015-Mar-29 17:14N 42°49' E 009°42'1115.9
2015-Mar-29 16:33N 42°59' E 009°37'1515.5
2015-Mar-29 15:33N 43°13' E 009°28'1615.7
2015-Mar-29 14:33N 43°27' E 009°16'1615.8
2015-Mar-29 13:33N 43°40' E 009°05'1615.7
2015-Mar-29 12:33N 43°53' E 008°53'1515.1
2015-Mar-29 11:33N 44°06' E 008°42'1514.9
2015-Mar-29 10:33N 44°19' E 008°31'1 0.7
2015-Mar-29 09:28N 44°19' E 008°30'0 0.0
2015-Mar-29 08:28N 44°19' E 008°30'0 0.0
2015-Mar-29 07:31N 44°19' E 008°30'0 0.0
2015-Mar-29 06:28N 44°19' E 008°30'0 0.0
2015-Mar-29 05:31N 44°19' E 008°30'0 0.0
2015-Mar-29 04:31N 44°19' E 008°30'0 0.0
2015-Mar-29 03:29N 44°19' E 008°30'0 0.0
2015-Mar-29 02:28N 44°19' E 008°30'0 0.0
2015-Mar-29 01:31N 44°19' E 008°30'0 0.0
2015-Mar-29 00:28N 44°19' E 008°30'0 0.0
2015-Mar-28 23:31N 44°19' E 008°30'0 0.0
2015-Mar-28 22:28N 44°19' E 008°30'0 0.0
2015-Mar-28 21:28N 44°19' E 008°30'0 0.0
2015-Mar-28 20:25N 44°19' E 008°30'0 0.0
2015-Mar-28 19:31N 44°19' E 008°30'0 0.0
2015-Mar-28 18:28N 44°19' E 008°30'0 0.0
2015-Mar-28 17:28N 44°19' E 008°30'0 0.0
2015-Mar-28 16:31N 44°19' E 008°30'0 0.0
2015-Mar-28 15:31N 44°19' E 008°30'0 0.0
2015-Mar-28 14:31N 44°19' E 008°30'0 0.0
2015-Mar-28 13:31N 44°19' E 008°30'0 0.0
2015-Mar-28 12:31N 44°19' E 008°30'0 0.0
2015-Mar-28 11:28N 44°19' E 008°30'0 0.0
2015-Mar-28 10:28N 44°19' E 008°30'0 0.0
2015-Mar-28 09:28N 44°19' E 008°30'0 0.0
2015-Mar-28 08:28N 44°19' E 008°30'0 0.0
2015-Mar-28 07:31N 44°19' E 008°30'0 0.4
2015-Mar-28 06:33N 44°19' E 008°30'4 3.8
2015-Mar-28 05:33N 44°16' E 008°33'9 8.7
2015-Mar-28 04:33N 44°09' E 008°40'1414.4
2015-Mar-28 03:34N 43°57' E 008°50'1515.1
2015-Mar-28 02:34N 43°44' E 009°01'1514.7
2015-Mar-28 01:34N 43°31' E 009°12'1514.7
2015-Mar-28 00:34N 43°19' E 009°23'1514.7
2015-Mar-27 23:34N 43°06' E 009°33'25715.1
2015-Mar-27 06:33N 38°49' E 009°23'1616.1
2015-Mar-27 05:33N 38°42' E 009°05'1615.7
2015-Mar-27 04:33N 38°41' E 008°45'1815.7
2015-Mar-27 03:24N 38°43' E 008°22'2216.2
2015-Mar-27 02:03N 38°50' E 007°55'19416.6
2015-Mar-26 14:22N 38°56' E 003°47'1417.1
2015-Mar-26 13:33N 38°58' E 003°29'1514.6
2015-Mar-26 12:33N 38°59' E 003°10'1414.1
2015-Mar-26 11:33N 38°60' E 002°52'1413.8
2015-Mar-26 10:33N 39°06' E 002°37'1414.1
2015-Mar-26 09:33N 39°16' E 002°23'1414.0
2015-Mar-26 08:33N 39°25' E 002°09'1212.0
2015-Mar-26 07:33N 39°36' E 002°04'1313.3
2015-Mar-26 06:33N 39°48' E 002°11'1312.6
2015-Mar-26 05:33N 39°60' E 002°18'1313.0
2015-Mar-26 04:33N 40°12' E 002°23'1313.0
2015-Mar-26 03:33N 40°24' E 002°28'1312.5
2015-Mar-26 02:33N 40°32' E 002°41'8 8.4
2015-Mar-26 01:33N 40°36' E 002°51'1212.0
2015-Mar-26 00:33N 40°42' E 003°05'1212.2
2015-Mar-25 23:33N 40°47' E 003°19'1313.3
2015-Mar-25 22:33N 40°58' E 003°30'1614.7
2015-Mar-25 21:28N 41°12' E 003°39'1713.5
2015-Mar-25 20:13N 41°26' E 003°26'13 7.5
2015-Mar-25 18:29N 41°34' E 003°13'2114.8
2015-Mar-25 17:05N 41°27' E 002°47'1416.2
2015-Mar-25 16:15N 41°22' E 002°30'14 0.6
2015-Mar-24 17:25N 41°20' E 002°12'0 0.0
2015-Mar-23 15:32N 41°20' E 002°12'10 9.9
2015-Mar-23 14:33N 41°10' E 002°08'1515.2
2015-Mar-23 13:33N 40°57' E 001°59'1514.9
2015-Mar-23 12:33N 40°43' E 001°50'1515.2
2015-Mar-23 11:34N 40°30' E 001°41'1515.1
2015-Mar-23 10:33N 40°17' E 001°32'1515.4
2015-Mar-23 09:33N 40°03' E 001°22'1615.2
2015-Mar-23 08:28N 39°48' E 001°13'11414.1
2015-Mar-23 00:24N 38°07' E 000°06'7 7.4
2015-Mar-22 23:31N 38°01' E 000°02'1 0.9
2015-Mar-22 22:32N 38°02' E 000°02'2 1.5
2015-Mar-22 21:18N 38°01' E 000°00'0 0.2
2015-Mar-22 20:06N 38°01' E 000°00'7 1.6
2015-Mar-22 16:04N 37°57' W 000°07'916.4
2015-Mar-22 15:29N 37°51' W 000°16'1516.3
2015-Mar-22 14:33N 37°38' W 000°26'1616.1
2015-Mar-22 13:33N 37°27' W 000°41'1616.1
2015-Mar-22 12:33N 37°16' W 000°56'21516.0
2015-Mar-21 23:04N 36°00' W 005°07'918.3
2015-Mar-21 22:34N 35°59' W 005°18'20113.2
2015-Mar-21 07:20N 37°13' W 009°11'1316.4
2015-Mar-21 06:33N 37°25' W 009°06'1615.6
2015-Mar-21 05:33N 37°40' W 008°60'1616.2
2015-Mar-21 04:33N 37°56' W 009°03'1615.9
2015-Mar-21 03:33N 38°12' W 009°03'1615.4
2015-Mar-21 02:33N 38°27' W 008°58'6 1.9
2015-Mar-20 23:16N 38°31' W 008°52'0 0.0
2015-Mar-20 22:28N 38°31' W 008°52'0 0.0
2015-Mar-20 21:13N 38°31' W 008°52'0 0.0
2015-Mar-20 18:16N 38°31' W 008°52'0 0.0
2015-Mar-20 17:07N 38°31' W 008°52'  

Dump ship's entire track history